Time;durP1;ratioP1;P1;durP2;ratioP2;P2;SDS_P1;SDS_P2;PMS_P1;PMS_P2;Temp;Humidity;BMP_temperature;BMP_pressure;BME280_temperature;BME280_humidity;BME280_pressure;Samples;Min_cycle;Max_cycle;Signal;HPM_P1;HPM_P2
2024/03/30 00:00:58;;;;;;;;;;;18.60;55.20;;;;;;5055653;28;19921;-71
2024/03/30 00:03:24;;;;;;;;;;;18.70;54.80;;;;;;5055607;28;20324;-71
2024/03/30 00:06:02;;;;;;;;;;;18.60;55.30;;;;;;5055598;28;19909;-72
2024/03/30 00:08:28;;;;;;;;;;;18.60;52.40;;;;;;5055594;28;20335;-73
2024/03/30 00:11:00;;;;;;;;;;;18.40;55.00;;;;;;5055779;28;19909;-73
2024/03/30 00:13:26;;;;;;;;;;;18.60;52.30;;;;;;5055514;28;20042;-73
2024/03/30 00:15:52;;;;;;;;;;;18.60;55.30;;;;;;5055359;28;20390;-73
2024/03/30 00:18:17;;;;;;;;;;;18.60;55.20;;;;;;5055354;28;20334;-73
2024/03/30 00:20:43;;;;;;;;;;;18.60;55.30;;;;;;5055653;28;19940;-72
2024/03/30 00:23:08;;;;;;;;;;;18.50;55.60;;;;;;5053998;28;19909;-73
2024/03/30 00:25:34;;;;;;;;;;;18.60;55.40;;;;;;5055234;28;20021;-72
2024/03/30 00:27:59;;;;;;;;;;;18.70;55.30;;;;;;5055245;28;20360;-72
2024/03/30 00:30:25;;;;;;;;;;;18.70;55.20;;;;;;5055211;28;19912;-73
2024/03/30 00:32:50;;;;;;;;;;;18.60;55.30;;;;;;5053826;28;19916;-72
2024/03/30 00:35:16;;;;;;;;;;;18.60;55.20;;;;;;5055067;28;19982;-73
2024/03/30 00:37:42;;;;;;;;;;;18.70;55.20;;;;;;5055036;28;19963;-73
2024/03/30 00:40:08;;;;;;;;;;;18.70;55.20;;;;;;5054910;28;19927;-73
2024/03/30 00:42:34;;;;;;;;;;;18.60;54.80;;;;;;5055027;28;19909;-73
2024/03/30 00:45:00;;;;;;;;;;;18.70;55.30;;;;;;5054970;28;19912;-73
2024/03/30 00:47:25;;;;;;;;;;;18.60;55.20;;;;;;5054860;28;20244;-72
2024/03/30 00:49:51;;;;;;;;;;;18.70;55.20;;;;;;5055074;28;19909;-73
2024/03/30 00:52:17;;;;;;;;;;;18.60;55.10;;;;;;5054898;28;20236;-73
2024/03/30 00:54:43;;;;;;;;;;;18.60;55.20;;;;;;5054687;28;19916;-72
2024/03/30 00:57:09;;;;;;;;;;;18.60;55.20;;;;;;5054971;28;19909;-73
2024/03/30 00:59:36;;;;;;;;;;;18.60;55.30;;;;;;5054992;28;20291;-72
2024/03/30 01:02:02;;;;;;;;;;;18.70;54.70;;;;;;5054994;28;19909;-73
2024/03/30 01:04:30;;;;;;;;;;;18.60;54.80;;;;;;5054542;28;19915;-73
2024/03/30 01:06:58;;;;;;;;;;;18.90;55.30;;;;;;5054655;28;19933;-73
2024/03/30 01:09:25;;;;;;;;;;;18.70;55.20;;;;;;5054276;28;19912;-73
2024/03/30 01:11:51;;;;;;;;;;;18.60;55.40;;;;;;5054802;28;20342;-73
2024/03/30 01:14:18;;;;;;;;;;;18.70;55.10;;;;;;5054427;28;20371;-72
2024/03/30 01:16:45;;;;;;;;;;;18.90;54.80;;;;;;5054360;28;19913;-72
2024/03/30 01:19:11;;;;;;;;;;;18.60;54.70;;;;;;5054638;28;19938;-72
2024/03/30 01:21:37;;;;;;;;;;;18.60;54.90;;;;;;5054562;28;20279;-72
2024/03/30 01:24:02;;;;;;;;;;;18.70;54.80;;;;;;5053042;28;19909;-72
2024/03/30 01:26:28;;;;;;;;;;;18.60;54.80;;;;;;5054410;28;19928;-72
2024/03/30 01:28:56;;;;;;;;;;;18.70;54.90;;;;;;5054124;28;19909;-72
2024/03/30 01:31:21;;;;;;;;;;;18.60;55.60;;;;;;5054042;28;19916;-72
2024/03/30 01:33:47;;;;;;;;;;;18.60;55.10;;;;;;5054005;28;19909;-73
2024/03/30 01:36:13;;;;;;;;;;;18.60;54.60;;;;;;5053841;28;19908;-73
2024/03/30 01:38:38;;;;;;;;;;;18.60;55.80;;;;;;5053804;28;20054;-73
2024/03/30 01:41:04;;;;;;;;;;;18.60;55.70;;;;;;5053945;28;19971;-72
2024/03/30 01:43:30;;;;;;;;;;;18.60;55.10;;;;;;5054392;28;20007;-72
2024/03/30 01:45:57;;;;;;;;;;;18.70;55.80;;;;;;5053802;28;20473;-72
2024/03/30 01:48:23;;;;;;;;;;;18.30;55.60;;;;;;5053703;28;19909;-72
2024/03/30 01:50:49;;;;;;;;;;;18.70;55.40;;;;;;5053679;28;19908;-72
2024/03/30 01:53:19;;;;;;;;;;;18.60;55.70;;;;;;5053826;28;20295;-72
2024/03/30 01:55:48;;;;;;;;;;;18.70;55.50;;;;;;5054042;28;19992;-72
2024/03/30 01:58:17;;;;;;;;;;;18.60;55.70;;;;;;5053949;28;19944;-72
2024/03/30 02:00:43;;;;;;;;;;;18.70;55.80;;;;;;5053485;28;19924;-72
2024/03/30 02:03:10;;;;;;;;;;;18.80;55.00;;;;;;5053425;28;19915;-72
2024/03/30 02:05:36;;;;;;;;;;;18.60;56.00;;;;;;5053360;28;19909;-73
2024/03/30 02:08:03;;;;;;;;;;;18.70;55.60;;;;;;5053623;28;20012;-72
2024/03/30 02:10:29;;;;;;;;;;;18.70;55.00;;;;;;5053660;28;20318;-72
2024/03/30 02:12:55;;;;;;;;;;;18.70;55.60;;;;;;5053214;28;19919;-73
2024/03/30 02:15:21;;;;;;;;;;;18.70;55.70;;;;;;5053243;28;19909;-72
2024/03/30 02:17:47;;;;;;;;;;;18.60;55.60;;;;;;5053440;28;19908;-72
2024/03/30 02:20:12;;;;;;;;;;;18.60;55.70;;;;;;5051964;28;19963;-72
2024/03/30 02:22:38;;;;;;;;;;;18.70;55.70;;;;;;5053112;28;20338;-72
2024/03/30 02:25:03;;;;;;;;;;;18.60;55.60;;;;;;5053011;28;20322;-72
2024/03/30 02:27:30;;;;;;;;;;;18.60;54.90;;;;;;5053377;28;19916;-72
2024/03/30 02:29:59;;;;;;;;;;;18.70;55.60;;;;;;5053040;28;19909;-73
2024/03/30 02:32:25;;;;;;;;;;;18.70;55.70;;;;;;5052033;28;20379;-73
2024/03/30 02:34:50;;;;;;;;;;;18.70;55.80;;;;;;5051570;28;19909;-72
2024/03/30 02:37:17;;;;;;;;;;;18.50;55.60;;;;;;5053144;28;19909;-72
2024/03/30 02:39:42;;;;;;;;;;;19.10;55.90;;;;;;5052544;28;19921;-73
2024/03/30 02:42:08;;;;;;;;;;;18.60;55.70;;;;;;5052875;28;20582;-72
2024/03/30 02:44:33;;;;;;;;;;;18.60;55.60;;;;;;5052893;28;19909;-72
2024/03/30 02:46:59;;;;;;;;;;;18.60;55.60;;;;;;5052730;28;19909;-72
2024/03/30 02:49:24;;;;;;;;;;;18.60;55.60;;;;;;5052930;28;20338;-72
2024/03/30 02:51:50;;;;;;;;;;;18.60;55.60;;;;;;5052667;28;19963;-73
2024/03/30 02:54:15;;;;;;;;;;;18.60;55.90;;;;;;5052513;28;20363;-72
2024/03/30 02:56:41;;;;;;;;;;;18.60;55.50;;;;;;5052503;28;19944;-73
2024/03/30 02:59:06;;;;;;;;;;;18.70;55.30;;;;;;5052938;28;19908;-73
2024/03/30 03:01:32;;;;;;;;;;;18.70;55.10;;;;;;5052223;28;19960;-72
2024/03/30 03:03:57;;;;;;;;;;;18.60;55.70;;;;;;5052541;28;19962;-72
2024/03/30 03:06:23;;;;;;;;;;;18.60;55.90;;;;;;5052252;28;20364;-72
2024/03/30 03:08:49;;;;;;;;;;;18.60;55.80;;;;;;5052412;28;19943;-72
2024/03/30 03:11:15;;;;;;;;;;;18.30;55.50;;;;;;5052574;28;19909;-72
2024/03/30 03:13:41;;;;;;;;;;;18.60;55.70;;;;;;5052192;28;19909;-73
2024/03/30 03:16:07;;;;;;;;;;;18.60;56.10;;;;;;5052434;28;20023;-73
2024/03/30 03:18:33;;;;;;;;;;;18.60;55.60;;;;;;5052045;28;19916;-72
2024/03/30 03:20:59;;;;;;;;;;;18.50;55.70;;;;;;5051951;28;19932;-73
2024/03/30 03:23:25;;;;;;;;;;;18.60;55.20;;;;;;5052184;28;19914;-72
2024/03/30 03:25:51;;;;;;;;;;;19.10;55.90;;;;;;5052262;28;19915;-72
2024/03/30 03:28:17;;;;;;;;;;;18.60;55.70;;;;;;5052450;28;20062;-72
2024/03/30 03:30:43;;;;;;;;;;;18.60;55.90;;;;;;5051866;28;19924;-72
2024/03/30 03:33:09;;;;;;;;;;;18.50;55.90;;;;;;5052148;28;20325;-72
2024/03/30 03:35:35;;;;;;;;;;;18.60;56.40;;;;;;5051900;28;19916;-72
2024/03/30 03:38:01;;;;;;;;;;;18.50;55.80;;;;;;5051778;28;20402;-72
2024/03/30 03:40:27;;;;;;;;;;;18.60;56.00;;;;;;5051597;28;20012;-72
2024/03/30 03:42:55;;;;;;;;;;;18.50;56.30;;;;;;5051303;28;20212;-72
2024/03/30 03:45:21;;;;;;;;;;;18.60;55.80;;;;;;5051716;28;19909;-73
2024/03/30 03:47:47;;;;;;;;;;;18.90;55.80;;;;;;5051986;28;19913;-72
2024/03/30 03:50:13;;;;;;;;;;;18.60;56.10;;;;;;5051763;28;19962;-72
2024/03/30 03:52:38;;;;;;;;;;;18.60;56.00;;;;;;5051669;28;19927;-72
2024/03/30 03:55:05;;;;;;;;;;;18.60;56.00;;;;;;5051952;28;19912;-72
2024/03/30 03:57:31;;;;;;;;;;;18.60;55.00;;;;;;5052119;28;19909;-72
2024/03/30 03:59:57;;;;;;;;;;;18.60;55.90;;;;;;5051809;28;19920;-72
2024/03/30 04:02:23;;;;;;;;;;;18.70;55.20;;;;;;5051877;28;20272;-73
2024/03/30 04:04:52;;;;;;;;;;;19.00;55.90;;;;;;5051657;28;19984;-72
2024/03/30 04:07:18;;;;;;;;;;;18.50;52.80;;;;;;5051664;28;19916;-70
2024/03/30 04:09:44;;;;;;;;;;;18.50;56.00;;;;;;5051873;28;20283;-71
2024/03/30 04:12:10;;;;;;;;;;;19.00;55.90;;;;;;5051817;28;19916;-71
2024/03/30 04:14:36;;;;;;;;;;;18.50;55.90;;;;;;5051762;28;19908;-71
2024/03/30 04:17:02;;;;;;;;;;;18.50;55.70;;;;;;5051376;28;20283;-71
2024/03/30 04:19:28;;;;;;;;;;;18.60;55.60;;;;;;5051586;28;19919;-71
2024/03/30 04:21:56;;;;;;;;;;;18.60;56.00;;;;;;5051353;28;20359;-71
2024/03/30 04:24:22;;;;;;;;;;;18.50;55.70;;;;;;5051876;28;20421;-72
2024/03/30 04:26:48;;;;;;;;;;;18.60;56.10;;;;;;5051711;28;20272;-72
2024/03/30 04:29:13;;;;;;;;;;;19.00;56.10;;;;;;5051326;28;19963;-73
2024/03/30 04:31:39;;;;;;;;;;;18.60;55.60;;;;;;5051342;28;19962;-72
2024/03/30 04:34:04;;;;;;;;;;;18.60;55.80;;;;;;5051276;28;20438;-72
2024/03/30 04:36:30;;;;;;;;;;;18.50;56.00;;;;;;5051426;28;19908;-72
2024/03/30 04:38:55;;;;;;;;;;;18.50;55.90;;;;;;5051106;28;20055;-73
2024/03/30 04:41:21;;;;;;;;;;;18.10;56.10;;;;;;5051250;28;19965;-72
2024/03/30 04:43:46;;;;;;;;;;;18.60;55.80;;;;;;5053455;28;20370;-72
2024/03/30 04:46:12;;;;;;;;;;;18.50;55.90;;;;;;5055008;28;19916;-72
2024/03/30 04:48:37;;;;;;;;;;;18.50;56.00;;;;;;5053588;28;19909;-72
2024/03/30 04:51:03;;;;;;;;;;;18.50;55.80;;;;;;5054939;28;19916;-72
2024/03/30 04:53:30;;;;;;;;;;;18.50;56.00;;;;;;5055526;28;19970;-73
2024/03/30 04:55:56;;;;;;;;;;;18.40;55.90;;;;;;5054831;28;19913;-72
2024/03/30 04:58:25;;;;;;;;;;;18.40;55.80;;;;;;5053421;28;19909;-72
2024/03/30 05:00:52;;;;;;;;;;;18.50;56.00;;;;;;5054596;28;20360;-73
2024/03/30 05:03:17;;;;;;;;;;;18.60;55.40;;;;;;5054591;28;19909;-72
2024/03/30 05:05:43;;;;;;;;;;;18.50;56.10;;;;;;5054725;28;20287;-72
2024/03/30 05:08:12;;;;;;;;;;;18.00;56.10;;;;;;5054563;28;19912;-72
2024/03/30 05:10:38;;;;;;;;;;;18.70;56.30;;;;;;5054477;28;20012;-72
2024/03/30 05:13:05;;;;;;;;;;;18.50;55.90;;;;;;5054502;28;19975;-72
2024/03/30 05:15:40;;;;;;;;;;;18.60;56.20;;;;;;5053126;28;19908;-72
2024/03/30 05:18:06;;;;;;;;;;;18.50;56.00;;;;;;5061087;28;19912;-72
2024/03/30 05:20:50;;;;;;;;;;;18.50;56.40;;;;;;5054209;28;19924;-72
2024/03/30 05:23:16;;;;;;;;;;;18.40;56.10;;;;;;5054890;28;19915;-72
2024/03/30 05:25:41;;;;;;;;;;;18.40;56.50;;;;;;5054331;28;20291;-72
2024/03/30 05:28:07;;;;;;;;;;;18.50;56.30;;;;;;5052944;28;19970;-72
2024/03/30 05:30:32;;;;;;;;;;;18.40;56.50;;;;;;5054296;28;19916;-73
2024/03/30 05:32:58;;;;;;;;;;;18.40;56.20;;;;;;5054171;28;19909;-72
2024/03/30 05:35:23;;;;;;;;;;;18.40;56.50;;;;;;5052859;28;19912;-72
2024/03/30 05:37:49;;;;;;;;;;;18.40;56.50;;;;;;5054016;28;19908;-72
2024/03/30 05:40:14;;;;;;;;;;;18.40;56.30;;;;;;5053824;28;19925;-72
2024/03/30 05:42:40;;;;;;;;;;;18.50;56.50;;;;;;5053962;28;20016;-72
2024/03/30 05:45:05;;;;;;;;;;;18.70;56.80;;;;;;5053896;28;19916;-72
2024/03/30 05:47:31;;;;;;;;;;;18.50;55.80;;;;;;5053674;28;19909;-73
2024/03/30 05:49:57;;;;;;;;;;;18.40;56.40;;;;;;5054108;28;19909;-72
2024/03/30 05:52:22;;;;;;;;;;;18.50;56.90;;;;;;5053701;28;19916;-72
2024/03/30 05:54:47;;;;;;;;;;;18.40;56.50;;;;;;5053238;28;20227;-72
2024/03/30 05:57:13;;;;;;;;;;;18.50;56.60;;;;;;5053292;28;19916;-72
2024/03/30 05:59:38;;;;;;;;;;;18.50;56.50;;;;;;5053018;28;20291;-72
2024/03/30 06:02:04;;;;;;;;;;;18.60;56.20;;;;;;5053236;28;19912;-72
2024/03/30 06:04:30;;;;;;;;;;;18.40;56.40;;;;;;5053158;28;20372;-71
2024/03/30 06:06:55;;;;;;;;;;;18.50;56.80;;;;;;5053112;28;19908;-71
2024/03/30 06:09:21;;;;;;;;;;;18.40;56.80;;;;;;5053053;28;19909;-71
2024/03/30 06:11:46;;;;;;;;;;;18.80;57.10;;;;;;5053086;28;19956;-71
2024/03/30 06:14:12;;;;;;;;;;;18.50;56.70;;;;;;5053045;28;19915;-71
2024/03/30 06:16:38;;;;;;;;;;;18.50;56.90;;;;;;5052996;28;19909;-71
2024/03/30 06:19:04;;;;;;;;;;;18.40;56.80;;;;;;5053360;28;19916;-71
2024/03/30 06:21:29;;;;;;;;;;;18.50;56.90;;;;;;5052814;28;19920;-71
2024/03/30 06:23:55;;;;;;;;;;;18.80;57.20;;;;;;5052881;28;19920;-71
2024/03/30 06:26:20;;;;;;;;;;;18.50;57.10;;;;;;5052788;28;19992;-70
2024/03/30 06:28:46;;;;;;;;;;;18.50;57.20;;;;;;5052862;28;20485;-71
2024/03/30 06:31:12;;;;;;;;;;;18.40;57.10;;;;;;5052800;28;19959;-71
2024/03/30 06:33:37;;;;;;;;;;;18.50;57.50;;;;;;5052654;28;19938;-71
2024/03/30 06:36:03;;;;;;;;;;;18.50;57.00;;;;;;5052599;28;20003;-71
2024/03/30 06:38:29;;;;;;;;;;;18.50;57.20;;;;;;5052413;28;19999;-71
2024/03/30 06:43:42;;;;;;;;;;;18.90;55.40;;;;;;5052881;28;19934;-71
2024/03/30 06:46:08;;;;;;;;;;;18.50;57.80;;;;;;5052461;28;20004;-71
2024/03/30 06:48:33;;;;;;;;;;;18.60;57.00;;;;;;5052913;28;19978;-71
2024/03/30 06:50:58;;;;;;;;;;;18.50;57.60;;;;;;5052397;28;20042;-71
2024/03/30 06:53:24;;;;;;;;;;;18.50;57.70;;;;;;5052305;28;19913;-71
2024/03/30 06:55:49;;;;;;;;;;;18.50;57.80;;;;;;5052473;28;19909;-71
2024/03/30 06:58:15;;;;;;;;;;;18.50;57.70;;;;;;5052097;28;20375;-71
2024/03/30 07:00:42;;;;;;;;;;;18.50;57.70;;;;;;5052118;28;19995;-71
2024/03/30 07:03:07;;;;;;;;;;;18.60;57.30;;;;;;5052044;28;19909;-71
2024/03/30 07:05:33;;;;;;;;;;;18.50;57.60;;;;;;5051497;28;20443;-71
2024/03/30 07:07:58;;;;;;;;;;;18.50;57.70;;;;;;5050676;28;19913;-71
2024/03/30 07:10:24;;;;;;;;;;;18.50;57.80;;;;;;5051861;28;19955;-71
2024/03/30 07:12:54;;;;;;;;;;;18.80;57.90;;;;;;5051967;28;19942;-71
2024/03/30 07:15:20;;;;;;;;;;;18.50;57.30;;;;;;5052361;28;19908;-71
2024/03/30 07:17:45;;;;;;;;;;;18.50;57.70;;;;;;5051805;28;20320;-71
2024/03/30 07:20:10;;;;;;;;;;;18.50;57.50;;;;;;5051700;28;19947;-71
2024/03/30 07:22:36;;;;;;;;;;;18.20;57.50;;;;;;5051674;28;20387;-71
2024/03/30 07:25:03;;;;;;;;;;;18.50;57.60;;;;;;5051821;28;20372;-71
2024/03/30 07:27:28;;;;;;;;;;;18.60;57.40;;;;;;5051723;28;20213;-70
2024/03/30 07:29:54;;;;;;;;;;;18.50;57.60;;;;;;5051766;28;19997;-70
2024/03/30 07:32:19;;;;;;;;;;;18.60;57.40;;;;;;5051551;28;19909;-70
2024/03/30 07:34:47;;;;;;;;;;;18.30;57.60;;;;;;5051589;28;19912;-73
2024/03/30 07:37:13;;;;;;;;;;;18.50;57.70;;;;;;5051829;28;20287;-73
2024/03/30 07:39:42;;;;;;;;;;;18.70;57.80;;;;;;5051367;28;19920;-73
2024/03/30 07:42:08;;;;;;;;;;;18.60;54.60;;;;;;5051583;28;20006;-73
2024/03/30 07:44:34;;;;;;;;;;;18.50;57.50;;;;;;5051916;28;19913;-73
2024/03/30 07:47:00;;;;;;;;;;;18.50;57.50;;;;;;5051501;28;19943;-72
2024/03/30 07:49:26;;;;;;;;;;;18.60;57.70;;;;;;5051393;28;19909;-72
2024/03/30 07:51:51;;;;;;;;;;;18.50;57.60;;;;;;5051339;28;19909;-73
2024/03/30 07:54:17;;;;;;;;;;;18.50;57.60;;;;;;5051374;28;20379;-73
2024/03/30 07:56:52;;;;;;;;;;;18.50;57.60;;;;;;5051493;28;19915;-73
2024/03/30 07:59:18;;;;;;;;;;;18.50;57.60;;;;;;5051240;28;19916;-75
2024/03/30 08:01:43;;;;;;;;;;;18.60;56.90;;;;;;5051178;28;19917;-73
2024/03/30 08:04:09;;;;;;;;;;;18.50;57.40;;;;;;5051273;28;19909;-72
2024/03/30 08:06:34;;;;;;;;;;;18.40;57.40;;;;;;5051336;28;20419;-71
2024/03/30 08:09:00;;;;;;;;;;;18.50;57.40;;;;;;5050116;28;19936;-71
2024/03/30 08:11:25;;;;;;;;;;;18.40;57.70;;;;;;5049945;28;19909;-71
2024/03/30 08:13:51;;;;;;;;;;;18.50;57.80;;;;;;5051829;28;19909;-73
2024/03/30 08:16:16;;;;;;;;;;;18.60;57.80;;;;;;5051399;28;19909;-73
2024/03/30 08:18:42;;;;;;;;;;;18.50;57.80;;;;;;5055135;28;20472;-73
2024/03/30 08:21:07;;;;;;;;;;;18.50;57.30;;;;;;5055200;28;20007;-73
2024/03/30 08:23:33;;;;;;;;;;;18.50;57.50;;;;;;5055031;28;20012;-73
2024/03/30 08:25:58;;;;;;;;;;;18.50;57.60;;;;;;5055170;28;20363;-72
2024/03/30 08:28:24;;;;;;;;;;;18.50;57.60;;;;;;5055091;28;19982;-72
2024/03/30 08:30:49;;;;;;;;;;;18.50;57.60;;;;;;5054986;28;20310;-73
2024/03/30 08:33:15;;;;;;;;;;;18.80;58.10;;;;;;5055000;28;19912;-73
2024/03/30 08:35:50;;;;;;;;;;;18.50;57.70;;;;;;5054886;28;20382;-73
2024/03/30 08:38:16;;;;;;;;;;;18.50;57.50;;;;;;5055205;28;19909;-73
2024/03/30 08:40:42;;;;;;;;;;;18.50;57.50;;;;;;5055034;28;19982;-73
2024/03/30 08:43:07;;;;;;;;;;;18.50;58.20;;;;;;5054782;28;19912;-73
2024/03/30 08:45:33;;;;;;;;;;;18.50;57.60;;;;;;5054690;28;19920;-74
2024/03/30 08:47:58;;;;;;;;;;;18.50;57.90;;;;;;5054627;28;20003;-76
2024/03/30 08:50:24;;;;;;;;;;;18.50;57.90;;;;;;5054787;28;19916;-76
2024/03/30 08:52:49;;;;;;;;;;;18.50;57.70;;;;;;5053408;28;19957;-76
2024/03/30 08:55:15;;;;;;;;;;;18.50;58.00;;;;;;5054637;28;19966;-76
2024/03/30 08:57:40;;;;;;;;;;;18.50;57.60;;;;;;5054386;28;19913;-76
2024/03/30 09:00:08;;;;;;;;;;;18.60;57.80;;;;;;5054402;28;19917;-76
2024/03/30 09:02:36;;;;;;;;;;;18.60;57.30;;;;;;5054580;28;20054;-76
2024/03/30 09:05:01;;;;;;;;;;;18.50;58.20;;;;;;5054618;28;19963;-74
2024/03/30 09:07:27;;;;;;;;;;;18.50;57.90;;;;;;5054463;28;20314;-74
2024/03/30 09:09:52;;;;;;;;;;;18.40;57.40;;;;;;5054677;28;20016;-73
2024/03/30 09:12:18;;;;;;;;;;;18.50;57.70;;;;;;5054315;28;19948;-76
2024/03/30 09:14:43;;;;;;;;;;;18.50;57.90;;;;;;5054263;28;20010;-75
2024/03/30 09:17:09;;;;;;;;;;;18.60;57.80;;;;;;5054734;28;20430;-73
2024/03/30 09:19:34;;;;;;;;;;;18.60;58.10;;;;;;5052585;28;20023;-72
2024/03/30 09:22:00;;;;;;;;;;;18.70;57.50;;;;;;5054121;28;20307;-71
2024/03/30 09:24:25;;;;;;;;;;;18.10;57.70;;;;;;5054003;28;20019;-72
2024/03/30 09:26:51;;;;;;;;;;;18.60;57.70;;;;;;5053885;28;19908;-72
2024/03/30 09:29:17;;;;;;;;;;;18.00;57.60;;;;;;5053305;28;19909;-72
2024/03/30 09:31:43;;;;;;;;;;;18.50;58.00;;;;;;5053841;28;19916;-72
2024/03/30 09:34:08;;;;;;;;;;;18.60;58.00;;;;;;5053798;28;19912;-71
2024/03/30 09:36:34;;;;;;;;;;;18.00;57.50;;;;;;5053829;28;19909;-73
2024/03/30 09:38:59;;;;;;;;;;;18.60;58.00;;;;;;5052748;28;19966;-73
2024/03/30 09:41:26;;;;;;;;;;;18.60;57.90;;;;;;5053652;28;20023;-72
2024/03/30 09:43:52;;;;;;;;;;;18.60;58.20;;;;;;5053455;28;20429;-73
2024/03/30 09:46:17;;;;;;;;;;;18.50;57.80;;;;;;5053486;28;20287;-73
2024/03/30 09:48:45;;;;;;;;;;;18.60;58.00;;;;;;5053472;28;19909;-73
2024/03/30 09:51:11;;;;;;;;;;;18.60;58.20;;;;;;5053583;28;19909;-73
2024/03/30 09:53:38;;;;;;;;;;;18.50;57.90;;;;;;5053590;28;20011;-73
2024/03/30 09:56:04;;;;;;;;;;;18.60;57.60;;;;;;5053501;28;19909;-72
2024/03/30 09:58:30;;;;;;;;;;;18.60;58.00;;;;;;5053334;28;19909;-76
2024/03/30 10:00:57;;;;;;;;;;;18.60;58.20;;;;;;5053327;28;20353;-76
2024/03/30 10:03:23;;;;;;;;;;;18.70;57.50;;;;;;5053229;28;19909;-74
2024/03/30 10:05:51;;;;;;;;;;;18.50;57.80;;;;;;5051876;28;19909;-74
2024/03/30 10:08:19;;;;;;;;;;;18.60;58.10;;;;;;5053396;28;19924;-77
2024/03/30 10:10:49;;;;;;;;;;;18.50;58.00;;;;;;5053134;28;20236;-74
2024/03/30 10:13:19;;;;;;;;;;;18.60;57.90;;;;;;5053101;28;20401;-74
2024/03/30 10:15:45;;;;;;;;;;;17.20;57.10;;;;;;5053135;28;19913;-75
2024/03/30 10:18:14;;;;;;;;;;;19.90;58.60;;;;;;5053180;28;20068;-73
2024/03/30 10:20:39;;;;;;;;;;;18.50;57.70;;;;;;5053043;28;19917;-75
2024/03/30 10:23:05;;;;;;;;;;;18.50;57.70;;;;;;5052969;28;19919;-74
2024/03/30 10:25:31;;;;;;;;;;;18.60;57.70;;;;;;5053071;28;19962;-74
2024/03/30 10:27:57;;;;;;;;;;;18.50;57.70;;;;;;5053064;28;20279;-73
2024/03/30 10:30:23;;;;;;;;;;;18.60;57.90;;;;;;5052936;28;19909;-74
2024/03/30 10:32:49;;;;;;;;;;;18.50;57.90;;;;;;5052950;28;19909;-73
2024/03/30 10:35:15;;;;;;;;;;;18.60;58.20;;;;;;5052571;28;19913;-73
2024/03/30 10:37:41;;;;;;;;;;;18.50;57.80;;;;;;5053742;28;19920;-74
2024/03/30 10:40:07;;;;;;;;;;;18.50;58.10;;;;;;5051690;28;19929;-77
2024/03/30 10:42:33;;;;;;;;;;;18.50;57.60;;;;;;5050926;28;19909;-75
2024/03/30 10:45:01;;;;;;;;;;;18.50;57.70;;;;;;5051194;28;20385;-73
2024/03/30 10:47:28;;;;;;;;;;;18.50;57.90;;;;;;5052471;28;19908;-75
2024/03/30 10:49:54;;;;;;;;;;;18.50;57.70;;;;;;5052357;28;19909;-75
2024/03/30 10:52:19;;;;;;;;;;;18.50;57.80;;;;;;5052303;28;20295;-75
2024/03/30 10:54:45;;;;;;;;;;;18.50;57.90;;;;;;5052271;28;19913;-75
2024/03/30 10:57:10;;;;;;;;;;;18.50;57.80;;;;;;5052253;28;19916;-75
2024/03/30 10:59:41;;;;;;;;;;;18.70;57.90;;;;;;5052305;28;19916;-75
2024/03/30 11:02:14;;;;;;;;;;;18.60;57.50;;;;;;5056559;28;20367;-74
2024/03/30 11:04:40;;;;;;;;;;;18.40;57.80;;;;;;5052191;28;19909;-76
2024/03/30 11:07:07;;;;;;;;;;;18.50;58.00;;;;;;5052223;28;19909;-73
2024/03/30 11:09:35;;;;;;;;;;;18.50;57.80;;;;;;5052120;28;19994;-74
2024/03/30 11:12:00;;;;;;;;;;;18.40;58.00;;;;;;5052094;28;20481;-73
2024/03/30 11:14:26;;;;;;;;;;;18.60;57.40;;;;;;5052026;28;19909;-73
2024/03/30 11:16:54;;;;;;;;;;;18.40;58.00;;;;;;5051880;28;19917;-72
2024/03/30 11:19:42;;;;;;;;;;;18.40;57.90;;;;;;5051946;28;20327;-72
2024/03/30 11:22:10;;;;;;;;;;;18.50;55.30;;;;;;5051936;28;19962;-73
2024/03/30 11:24:36;;;;;;;;;;;18.50;58.40;;;;;;5051894;28;19971;-73
2024/03/30 11:27:05;;;;;;;;;;;18.20;58.30;;;;;;5051796;28;19916;-73
2024/03/30 11:29:34;;;;;;;;;;;18.50;58.20;;;;;;5051760;28;19908;-72
2024/03/30 11:32:13;;;;;;;;;;;18.50;55.50;;;;;;5051755;28;19944;-73
2024/03/30 11:34:45;;;;;;;;;;;18.50;55.50;;;;;;5051604;28;20371;-71
2024/03/30 11:37:18;;;;;;;;;;;18.50;55.60;;;;;;5050227;28;19916;-72
2024/03/30 11:39:51;;;;;;;;;;;18.50;55.60;;;;;;5049988;28;20371;-70
2024/03/30 11:42:30;;;;;;;;;;;18.50;58.80;;;;;;5051785;28;19909;-71
2024/03/30 11:44:56;;;;;;;;;;;18.60;55.70;;;;;;5051483;28;19909;-72
2024/03/30 11:47:22;;;;;;;;;;;18.50;58.70;;;;;;5051596;28;20011;-73
2024/03/30 11:49:47;;;;;;;;;;;18.50;58.80;;;;;;5051561;28;20354;-73
2024/03/30 11:52:14;;;;;;;;;;;18.60;58.60;;;;;;5051290;28;20031;-74
2024/03/30 11:54:44;;;;;;;;;;;18.60;58.70;;;;;;5051436;28;19915;-74
2024/03/30 11:57:12;;;;;;;;;;;18.50;58.70;;;;;;5051601;28;20011;-72
2024/03/30 11:59:39;;;;;;;;;;;18.60;55.80;;;;;;5051310;28;19913;-72
2024/03/30 12:02:11;;;;;;;;;;;18.60;57.80;;;;;;5051271;28;19909;-73
2024/03/30 12:04:38;;;;;;;;;;;18.60;55.90;;;;;;5051873;28;20320;-73
2024/03/30 12:07:07;;;;;;;;;;;18.60;58.90;;;;;;5051750;28;19915;-72
2024/03/30 12:09:33;;;;;;;;;;;18.50;55.70;;;;;;5051231;28;20366;-72
2024/03/30 12:12:12;;;;;;;;;;;18.60;59.00;;;;;;5051180;28;19924;-73
2024/03/30 12:14:38;;;;;;;;;;;18.50;55.90;;;;;;5049817;28;19909;-73
2024/03/30 12:17:04;;;;;;;;;;;18.60;58.80;;;;;;5051193;28;20015;-73
2024/03/30 12:19:30;;;;;;;;;;;18.60;58.80;;;;;;5051268;28;19952;-73
2024/03/30 12:21:56;;;;;;;;;;;18.60;59.00;;;;;;5051182;28;20015;-73
2024/03/30 12:24:22;;;;;;;;;;;18.60;58.90;;;;;;5051090;28;20382;-73
2024/03/30 12:26:48;;;;;;;;;;;18.60;58.70;;;;;;5051235;28;19915;-73
2024/03/30 12:29:13;;;;;;;;;;;18.60;59.10;;;;;;5051239;28;20371;-73
2024/03/30 12:31:39;;;;;;;;;;;18.60;59.00;;;;;;5051034;28;19963;-72
2024/03/30 12:34:05;;;;;;;;;;;18.60;59.00;;;;;;5051443;28;20278;-72
2024/03/30 12:36:31;;;;;;;;;;;18.60;58.70;;;;;;5051013;28;19909;-73
2024/03/30 12:38:57;;;;;;;;;;;18.80;59.00;;;;;;5051083;28;19953;-71
2024/03/30 12:41:22;;;;;;;;;;;18.60;58.90;;;;;;5051012;28;19924;-71
2024/03/30 12:43:57;;;;;;;;;;;18.60;59.00;;;;;;5050923;28;20295;-71
2024/03/30 12:46:22;;;;;;;;;;;18.60;58.80;;;;;;5050855;28;19909;-72
2024/03/30 12:48:48;;;;;;;;;;;18.60;58.90;;;;;;5050969;28;20003;-73
2024/03/30 12:51:13;;;;;;;;;;;18.60;58.90;;;;;;5050872;28;19909;-72
2024/03/30 12:53:39;;;;;;;;;;;18.60;58.60;;;;;;5050817;28;19916;-71
2024/03/30 12:56:05;;;;;;;;;;;18.60;58.90;;;;;;5050938;28;19997;-72
2024/03/30 12:58:30;;;;;;;;;;;18.60;58.40;;;;;;5049430;28;19909;-71
2024/03/30 13:00:56;;;;;;;;;;;18.60;58.70;;;;;;5050701;28;20390;-71
2024/03/30 13:03:22;;;;;;;;;;;18.70;58.10;;;;;;5050797;28;19913;-70
2024/03/30 13:05:48;;;;;;;;;;;18.60;58.50;;;;;;5054316;28;20003;-71
2024/03/30 13:08:14;;;;;;;;;;;18.60;58.70;;;;;;5054410;28;20368;-70
2024/03/30 13:10:41;;;;;;;;;;;18.60;58.90;;;;;;5054445;28;19920;-71
2024/03/30 13:13:07;;;;;;;;;;;18.60;58.80;;;;;;5054773;28;19944;-71
2024/03/30 13:15:33;;;;;;;;;;;18.60;58.30;;;;;;5054370;28;19943;-70
2024/03/30 13:18:06;;;;;;;;;;;18.60;58.90;;;;;;5054261;28;20386;-70
2024/03/30 13:20:31;;;;;;;;;;;18.60;55.80;;;;;;5053938;28;19924;-70
2024/03/30 13:22:59;;;;;;;;;;;18.60;58.70;;;;;;5054113;28;19909;-71
2024/03/30 13:25:24;;;;;;;;;;;18.60;58.60;;;;;;5054109;28;19928;-69
2024/03/30 13:27:50;;;;;;;;;;;18.50;58.70;;;;;;5054176;28;20371;-70
2024/03/30 13:30:15;;;;;;;;;;;18.60;58.60;;;;;;5053901;28;19909;-69
2024/03/30 13:32:41;;;;;;;;;;;18.50;58.30;;;;;;5053822;28;19909;-70
2024/03/30 13:35:10;;;;;;;;;;;18.50;58.50;;;;;;5053805;28;19909;-70
2024/03/30 13:37:36;;;;;;;;;;;18.60;58.60;;;;;;5053669;28;19913;-70
2024/03/30 13:40:03;;;;;;;;;;;18.50;58.40;;;;;;5053448;28;19954;-70
2024/03/30 13:42:28;;;;;;;;;;;18.60;58.50;;;;;;5053290;28;19909;-70
2024/03/30 13:44:54;;;;;;;;;;;18.60;58.50;;;;;;5053768;28;19917;-71
2024/03/30 13:47:20;;;;;;;;;;;18.60;58.40;;;;;;5053627;28;20255;-70
2024/03/30 13:49:45;;;;;;;;;;;18.60;58.40;;;;;;5053489;28;19908;-71
2024/03/30 13:52:11;;;;;;;;;;;18.60;58.70;;;;;;5053717;28;19917;-72
2024/03/30 13:54:36;;;;;;;;;;;18.60;58.30;;;;;;5053545;28;19920;-70
2024/03/30 13:57:03;;;;;;;;;;;18.50;58.70;;;;;;5053365;28;19916;-72
2024/03/30 13:59:29;;;;;;;;;;;18.50;58.00;;;;;;5053240;28;19991;-71
2024/03/30 14:01:55;;;;;;;;;;;20.10;58.60;;;;;;5053503;28;20011;-71
2024/03/30 14:04:21;;;;;;;;;;;18.60;58.40;;;;;;5053492;28;19931;-70
2024/03/30 14:06:47;;;;;;;;;;;18.50;58.50;;;;;;5053182;28;20363;-72
2024/03/30 14:09:12;;;;;;;;;;;18.50;58.40;;;;;;5053168;28;19909;-73
2024/03/30 14:11:38;;;;;;;;;;;18.50;58.30;;;;;;5053213;28;20264;-73
2024/03/30 14:14:03;;;;;;;;;;;18.50;58.50;;;;;;5053090;28;20004;-73